Time;durP1;ratioP1;P1;durP2;ratioP2;P2;SDS_P1;SDS_P2;PMS_P1;PMS_P2;Temp;Humidity;BMP_temperature;BMP_pressure;BME280_temperature;BME280_humidity;BME280_pressure;Samples;Min_cycle;Max_cycle;Signal;HPM_P1;HPM_P2
2023/08/05 00:00:12;;;;;;;2.17;1.70;;;;;;;29.35;29.02;98291.16;5070905;28;20052;-76
2023/08/05 00:02:38;;;;;;;3.22;1.55;;;;;;;29.30;29.22;98280.34;5071087;28;20099;-76
2023/08/05 00:05:04;;;;;;;3.03;1.55;;;;;;;29.31;29.00;98284.66;5070655;28;20443;-76
2023/08/05 00:07:30;;;;;;;2.00;1.58;;;;;;;29.25;29.12;98283.78;5070200;28;20068;-76
2023/08/05 00:09:55;;;;;;;2.95;1.80;;;;;;;29.23;29.24;98275.97;5054216;28;20032;-77
2023/08/05 00:12:21;;;;;;;2.92;1.70;;;;;;;29.21;29.52;98280.78;5071948;28;20028;-77
2023/08/05 00:14:47;;;;;;;3.38;1.60;;;;;;;29.19;29.17;98274.03;5053654;28;20480;-76
2023/08/05 00:17:12;;;;;;;3.03;1.60;;;;;;;29.15;29.11;98273.69;5070648;28;20040;-76
2023/08/05 00:19:38;;;;;;;2.22;1.40;;;;;;;29.11;29.63;98263.69;5070524;28;20036;-77
2023/08/05 00:22:03;;;;;;;2.38;1.70;;;;;;;29.09;29.66;98266.63;5053837;28;20399;-77
2023/08/05 00:24:29;;;;;;;2.45;1.63;;;;;;;29.07;29.75;98259.88;5037753;28;20472;-77
2023/08/05 00:26:54;;;;;;;1.80;1.50;;;;;;;29.03;30.09;98262.25;5037453;28;20479;-76
2023/08/05 00:29:20;;;;;;;2.45;1.63;;;;;;;28.97;29.99;98256.00;5071544;28;20043;-77
2023/08/05 00:31:45;;;;;;;2.35;1.70;;;;;;;28.97;29.77;98263.22;5053673;28;20047;-76
2023/08/05 00:34:11;;;;;;;2.60;1.60;;;;;;;28.90;29.77;98255.34;5053690;28;20477;-76
2023/08/05 00:36:36;;;;;;;3.70;1.70;;;;;;;28.88;30.21;98258.28;5037598;28;20053;-76
2023/08/05 00:39:02;;;;;;;2.45;1.73;;;;;;;28.85;30.18;98253.41;5070212;28;20110;-76
2023/08/05 00:41:27;;;;;;;2.20;1.70;;;;;;;28.79;30.38;98248.22;5053903;28;20028;-78
2023/08/05 00:43:52;;;;;;;2.67;1.83;;;;;;;28.77;30.52;98245.00;5037333;28;20072;-78
2023/08/05 00:46:22;;;;;;;3.47;1.80;;;;;;;28.76;30.27;98244.16;5054284;28;20031;-78
2023/08/05 00:48:49;;;;;;;2.70;1.90;;;;;;;28.72;30.74;98242.22;5071436;28;20028;-78
2023/08/05 00:51:14;;;;;;;2.53;1.80;;;;;;;28.73;30.79;98241.97;5058394;28;20028;-77
2023/08/05 00:53:40;;;;;;;2.28;1.73;;;;;;;28.70;30.92;98242.44;5057462;28;20040;-78
2023/08/05 00:56:05;;;;;;;4.53;1.80;;;;;;;28.65;30.85;98240.50;5075202;28;20488;-77
2023/08/05 00:58:32;;;;;;;3.15;1.90;;;;;;;28.64;30.75;98235.41;5040670;28;20047;-78
2023/08/05 01:00:58;;;;;;;2.60;1.92;;;;;;;28.58;31.01;98225.66;5057613;28;20162;-77
2023/08/05 01:03:24;;;;;;;3.60;1.90;;;;;;;28.57;31.18;98234.72;5057910;28;20103;-78
2023/08/05 01:05:50;;;;;;;2.42;1.88;;;;;;;28.49;31.34;98227.91;5074087;28;20053;-76
2023/08/05 01:08:16;;;;;;;2.35;1.70;;;;;;;28.43;31.46;98227.03;5040639;28;20090;-76
2023/08/05 01:10:41;;;;;;;2.53;1.80;;;;;;;28.46;31.63;98229.19;5057525;28;20139;-76
2023/08/05 01:13:07;;;;;;;2.53;1.80;;;;;;;28.38;31.50;98228.81;5040561;28;20032;-76
2023/08/05 01:15:32;;;;;;;2.28;1.90;;;;;;;28.31;31.68;98216.38;5073681;28;20043;-76
2023/08/05 01:17:58;;;;;;;2.85;2.00;;;;;;;28.31;31.91;98218.25;5073906;28;20028;-75
2023/08/05 01:20:30;;;;;;;3.78;2.08;;;;;;;28.28;31.92;98222.22;5073674;28;20039;-76
2023/08/05 01:22:56;;;;;;;2.58;2.00;;;;;;;28.24;31.78;98218.41;5040579;28;20491;-76
2023/08/05 01:25:21;;;;;;;5.63;2.10;;;;;;;28.19;31.99;98212.97;5056936;28;20040;-76
2023/08/05 01:27:47;;;;;;;2.38;1.88;;;;;;;28.18;32.06;98208.66;5074929;28;20056;-76
2023/08/05 01:30:12;;;;;;;3.20;1.90;;;;;;;28.17;32.28;98215.09;5056694;28;20035;-76
2023/08/05 01:32:38;;;;;;;3.15;2.03;;;;;;;28.15;32.12;98209.16;5056645;28;20059;-76
2023/08/05 01:35:05;;;;;;;3.15;2.03;;;;;;;28.10;32.22;98207.19;5056469;28;20032;-76
2023/08/05 01:37:31;;;;;;;3.92;2.20;;;;;;;28.09;32.28;98205.56;5040038;28;20113;-76
2023/08/05 01:39:56;;;;;;;2.95;2.13;;;;;;;28.08;32.27;98208.50;5089477;28;20041;-76
2023/08/05 01:42:22;;;;;;;2.30;2.05;;;;;;;28.05;32.29;98206.28;5072391;28;20068;-76
2023/08/05 01:44:47;;;;;;;5.30;2.00;;;;;;;28.02;32.68;98202.22;5073126;28;20109;-76
2023/08/05 01:47:13;;;;;;;4.45;2.20;;;;;;;27.98;32.72;98203.78;5089816;28;20045;-77
2023/08/05 01:49:38;;;;;;;3.53;2.17;;;;;;;27.96;32.64;98203.22;5073458;28;20083;-77
2023/08/05 01:52:04;;;;;;;2.78;1.95;;;;;;;27.88;32.93;98193.66;5071847;28;20041;-77
2023/08/05 01:54:29;;;;;;;2.35;2.00;;;;;;;27.86;33.09;98201.13;5056298;28;20472;-76
2023/08/05 01:56:55;;;;;;;3.03;2.15;;;;;;;27.87;32.94;98201.97;5056183;28;20051;-75
2023/08/05 01:59:20;;;;;;;3.10;2.13;;;;;;;27.83;33.16;98196.25;5088988;28;20139;-76
2023/08/05 02:01:47;;;;;;;3.28;2.15;;;;;;;27.78;32.99;98197.00;5073055;28;20032;-76
2023/08/05 02:04:13;;;;;;;2.92;2.38;;;;;;;27.78;33.32;98199.69;5055843;28;20028;-76
2023/08/05 02:06:38;;;;;;;2.97;2.13;;;;;;;27.77;33.25;98206.09;5056548;28;20040;-76
2023/08/05 02:09:04;;;;;;;4.75;2.45;;;;;;;27.68;33.28;98201.38;5055999;28;20119;-76
2023/08/05 02:11:30;;;;;;;3.08;2.20;;;;;;;27.72;33.56;98205.16;5056096;28;20024;-76
2023/08/05 02:13:55;;;;;;;6.50;2.40;;;;;;;27.71;33.34;98206.25;5056317;28;20474;-76
2023/08/05 02:16:21;;;;;;;4.88;2.50;;;;;;;27.68;33.84;98201.38;5056464;28;20041;-76
2023/08/05 02:18:46;;;;;;;4.45;2.50;;;;;;;27.64;33.79;98208.25;5073968;28;20029;-77
2023/08/05 02:21:12;;;;;;;3.65;2.35;;;;;;;27.59;34.16;98214.34;5072575;28;20475;-77
2023/08/05 02:23:37;;;;;;;2.55;2.20;;;;;;;27.56;34.44;98214.81;5072731;28;20036;-77
2023/08/05 02:26:03;;;;;;;4.35;2.55;;;;;;;27.52;34.36;98211.00;5072654;28;20469;-77
2023/08/05 02:28:28;;;;;;;4.68;2.75;;;;;;;27.50;34.36;98216.59;5056097;28;20037;-76
2023/08/05 02:30:54;;;;;;;3.13;2.40;;;;;;;27.49;34.63;98217.66;5039431;28;20392;-77
2023/08/05 02:33:19;;;;;;;3.28;2.35;;;;;;;27.41;34.56;98216.16;5039300;28;20113;-77
2023/08/05 02:35:46;;;;;;;4.22;2.40;;;;;;;27.43;35.02;98224.75;5039123;28;20095;-77
2023/08/05 02:38:11;;;;;;;3.35;2.72;;;;;;;27.43;35.20;98226.63;5055812;28;20036;-77
2023/08/05 02:40:37;;;;;;;3.45;2.70;;;;;;;27.38;35.03;98230.03;5055703;28;20031;-77
2023/08/05 02:43:02;;;;;;;4.60;2.65;;;;;;;27.35;35.38;98221.66;5072158;28;20036;-77
2023/08/05 02:45:28;;;;;;;4.40;2.60;;;;;;;27.37;35.28;98232.94;5038756;28;20024;-77
2023/08/05 02:47:53;;;;;;;5.68;2.60;;;;;;;27.34;35.54;98228.06;5038900;28;20040;-77
2023/08/05 02:50:19;;;;;;;3.75;2.72;;;;;;;27.31;35.58;98224.00;5055467;28;20469;-78
2023/08/05 02:52:44;;;;;;;3.17;2.40;;;;;;;27.33;35.54;98231.81;5055591;28;20487;-77
2023/08/05 02:55:09;;;;;;;5.07;2.80;;;;;;;27.26;35.82;98226.53;5072011;28;20054;-76
2023/08/05 02:57:35;;;;;;;3.47;2.60;;;;;;;27.29;35.89;98241.34;5071798;28;20322;-76
2023/08/05 03:00:00;;;;;;;5.13;2.80;;;;;;;27.22;35.96;98236.94;5055258;28;20041;-77
2023/08/05 03:02:26;;;;;;;3.42;2.78;;;;;;;27.23;36.19;98241.25;5055030;28;20033;-76
2023/08/05 03:04:52;;;;;;;6.10;2.90;;;;;;;27.25;36.60;98241.00;5054777;28;20131;-77
2023/08/05 03:07:17;;;;;;;3.67;2.80;;;;;;;27.21;36.49;98240.66;5072829;28;20036;-74
2023/08/05 03:09:42;;;;;;;3.85;2.80;;;;;;;27.21;36.42;98245.19;5055012;28;20483;-75
2023/08/05 03:12:08;;;;;;;5.35;2.92;;;;;;;27.17;36.77;98241.38;5037542;28;20033;-75
2023/08/05 03:14:34;;;;;;;4.22;2.70;;;;;;;27.18;36.85;98245.66;5037870;28;20123;-75
2023/08/05 03:16:59;;;;;;;4.18;3.08;;;;;;;27.15;36.75;98252.34;5037795;28;20032;-75
2023/08/05 03:19:25;;;;;;;5.53;3.10;;;;;;;27.15;36.96;98255.03;5071339;28;20039;-75
2023/08/05 03:21:50;;;;;;;5.38;3.00;;;;;;;27.38;36.77;98254.16;5054779;28;20102;-75
2023/08/05 03:24:16;;;;;;;4.88;3.03;;;;;;;27.40;36.96;98253.91;5037726;28;20063;-75
2023/08/05 03:26:41;;;;;;;4.32;2.90;;;;;;;27.38;37.10;98258.72;5037510;28;20123;-75
2023/08/05 03:29:07;;;;;;;4.78;3.05;;;;;;;27.39;37.21;98257.63;5037788;28;20066;-75
2023/08/05 03:31:32;;;;;;;4.63;3.05;;;;;;;27.42;37.44;98259.84;5054416;28;20032;-75
2023/08/05 03:33:58;;;;;;;5.07;3.10;;;;;;;27.43;37.55;98256.13;5071139;28;20029;-75
2023/08/05 03:36:23;;;;;;;3.92;2.97;;;;;;;27.45;37.96;98251.31;5061725;28;20043;-77
2023/08/05 03:38:49;;;;;;;4.43;3.08;;;;;;;27.50;37.96;98247.94;5074916;28;20074;-74
2023/08/05 03:41:14;;;;;;;4.78;3.30;;;;;;;27.87;37.05;98248.34;5070650;28;20028;-75
2023/08/05 03:43:40;;;;;;;4.88;2.97;;;;;;;28.67;35.92;98249.16;5052072;28;20036;-74
2023/08/05 03:46:05;;;;;;;5.18;3.20;;;;;;;29.32;34.71;98252.16;5088912;28;20039;-74
2023/08/05 03:48:31;;;;;;;5.65;3.00;;;;;;;29.96;33.65;98250.69;5053764;28;20070;-75
2023/08/05 03:50:56;;;;;;;4.88;2.97;;;;;;;30.55;32.90;98249.81;5054069;28;20074;-75
2023/08/05 03:53:22;;;;;;;4.30;2.80;;;;;;;31.12;32.30;98250.16;5062445;28;20028;-75
2023/08/05 03:55:47;;;;;;;4.22;2.90;;;;;;;31.63;31.37;98233.34;5057366;28;20483;-75
2023/08/05 03:58:13;;;;;;;3.10;2.60;;;;;;;32.16;30.77;98239.34;5057360;28;20032;-75
2023/08/05 04:00:42;;;;;;;4.55;2.42;;;;;;;32.70;29.92;98237.97;5073594;28;20094;-75
2023/08/05 04:03:08;;;;;;;4.63;2.58;;;;;;;33.26;29.35;98241.59;5090849;28;20027;-75
2023/08/05 04:05:33;;;;;;;3.45;2.38;;;;;;;33.79;28.43;98241.03;5057027;28;20044;-76
2023/08/05 04:07:59;;;;;;;9.23;2.72;;;;;;;34.25;27.75;98236.09;5060608;28;20043;-76
2023/08/05 04:10:24;;;;;;;3.47;2.30;;;;;;;34.88;27.41;98247.16;5057195;28;20040;-75
2023/08/05 04:12:50;;;;;;;4.80;2.50;;;;;;;35.34;26.38;98241.19;5090847;28;20472;-75
2023/08/05 04:15:18;;;;;;;3.33;2.35;;;;;;;35.86;26.12;98238.56;5073835;28;20042;-75
2023/08/05 04:17:44;;;;;;;4.35;2.40;;;;;;;36.48;25.64;98246.50;5054402;28;20040;-75
2023/08/05 04:20:12;;;;;;;4.28;2.30;;;;;;;36.85;25.62;98244.75;5053769;28;20093;-76
2023/08/05 04:22:38;;;;;;;4.60;2.28;;;;;;;37.32;25.25;98233.75;5053905;28;20024;-75
2023/08/05 04:25:05;;;;;;;4.35;2.20;;;;;;;37.81;24.84;98244.91;5073755;28;20039;-75
2023/08/05 04:27:31;;;;;;;3.20;2.15;;;;;;;38.14;24.61;98245.47;5074441;28;20020;-75
2023/08/05 04:29:58;;;;;;;4.13;2.00;;;;;;;38.67;24.01;98246.63;5041337;28;20051;-75
2023/08/05 04:32:23;;;;;;;4.68;2.25;;;;;;;39.11;23.51;98245.97;5074513;28;20040;-75
2023/08/05 04:34:49;;;;;;;5.35;2.08;;;;;;;39.63;22.94;98232.41;5058973;28;20033;-76
2023/08/05 04:37:21;;;;;;;3.80;2.17;;;;;;;40.11;22.86;98228.69;5059365;28;20075;-75
2023/08/05 04:39:47;;;;;;;3.22;1.90;;;;;;;40.33;22.40;98224.13;5074940;28;20041;-75
2023/08/05 04:42:12;;;;;;;6.07;2.10;;;;;;;40.82;22.00;98224.59;5057596;28;20025;-75
2023/08/05 04:44:40;;;;;;;6.13;2.25;;;;;;;41.13;21.23;98226.19;5074336;28;20039;-75
2023/08/05 04:47:06;;;;;;;5.72;1.80;;;;;;;41.40;20.98;98224.94;5079632;28;20034;-76
2023/08/05 04:49:32;;;;;;;5.25;2.17;;;;;;;41.85;20.33;98234.41;5075322;28;20486;-75
2023/08/05 04:51:58;;;;;;;3.83;1.80;;;;;;;42.32;20.15;98233.31;5074040;28;20071;-75
2023/08/05 04:54:23;;;;;;;7.33;1.90;;;;;;;41.44;20.71;98233.28;5074198;28;20442;-75
2023/08/05 04:56:49;;;;;;;9.97;2.30;;;;;;;42.07;20.13;98235.16;5040724;28;20033;-74
2023/08/05 04:59:14;;;;;;;6.22;1.90;;;;;;;42.66;19.72;98236.78;5062181;28;20081;-75
2023/08/05 05:01:39;;;;;;;9.13;1.90;;;;;;;42.73;19.60;98245.25;5094160;28;20032;-75
2023/08/05 05:04:05;;;;;;;6.57;2.10;;;;;;;43.18;19.88;98241.56;5060235;28;20028;-75
2023/08/05 05:06:30;;;;;;;6.97;1.80;;;;;;;42.82;19.98;98242.38;5076910;28;20040;-75
2023/08/05 05:08:56;;;;;;;7.00;1.70;;;;;;;42.41;20.79;98241.41;5093816;28;20044;-75
2023/08/05 05:11:21;;;;;;;3.27;1.70;;;;;;;43.30;20.15;98235.28;5063428;28;20067;-76
2023/08/05 05:13:50;;;;;;;5.90;2.00;;;;;;;44.08;19.34;98237.88;5073798;28;20040;-76
2023/08/05 05:16:17;;;;;;;5.47;1.75;;;;;;;44.31;19.34;98249.09;5057644;28;20036;-75
2023/08/05 05:18:43;;;;;;;5.38;1.75;;;;;;;44.73;18.86;98243.09;5073785;28;20086;-76
2023/08/05 05:21:09;;;;;;;4.90;1.80;;;;;;;44.10;19.43;98235.56;5070008;28;20410;-75
2023/08/05 05:23:34;;;;;;;5.23;2.27;;;;;;;43.69;20.19;98232.88;5093451;28;20024;-75
2023/08/05 05:26:00;;;;;;;5.60;1.90;;;;;;;44.49;18.99;98235.00;5094012;28;20032;-75
2023/08/05 05:28:25;;;;;;;3.07;1.83;;;;;;;44.59;19.61;98232.53;5059455;28;20048;-76
2023/08/05 05:30:51;;;;;;;6.87;2.10;;;;;;;44.28;19.68;98230.56;5077055;28;20036;-76
2023/08/05 05:33:16;;;;;;;6.50;2.17;;;;;;;43.94;20.30;98230.06;5076787;28;20028;-75
2023/08/05 05:35:42;;;;;;;4.87;1.97;;;;;;;43.78;20.24;98234.69;5076309;28;20047;-76
2023/08/05 05:38:07;;;;;;;14.37;2.17;;;;;;;43.01;21.44;98222.63;5060044;28;20498;-76
2023/08/05 05:40:33;;;;;;;8.90;2.07;;;;;;;42.45;22.37;98234.91;5060083;28;20028;-76
2023/08/05 05:42:58;;;;;;;7.77;2.00;;;;;;;41.56;23.04;98230.59;5094837;28;20028;-77
2023/08/05 05:45:24;;;;;;;8.73;1.90;;;;;;;41.07;23.66;98221.25;5094808;28;20042;-75
2023/08/05 05:47:49;;;;;;;4.82;2.05;;;;;;;40.07;25.19;98226.94;5076918;28;20050;-76
2023/08/05 05:50:16;;;;;;;7.90;1.70;;;;;;;42.11;22.52;98227.84;5076639;28;20039;-76
2023/08/05 05:52:41;;;;;;;;;;;;;;;41.83;23.27;98222.97;5077049;28;20494;-76
2023/08/05 05:55:08;;;;;;;6.83;1.83;;;;;;;42.63;22.49;98221.00;5086433;28;19922;-78
2023/08/05 05:57:34;;;;;;;4.68;1.65;;;;;;;42.40;22.35;98223.34;5073297;28;20024;-77
2023/08/05 06:00:01;;;;;;;3.97;1.60;;;;;;;42.20;22.84;98228.59;5085027;28;20043;-76
2023/08/05 06:02:29;;;;;;;7.35;1.60;;;;;;;43.34;21.13;98233.41;5075980;28;20414;-76
2023/08/05 06:04:54;;;;;;;6.85;1.90;;;;;;;42.10;22.56;98215.31;5109547;28;20551;-78
2023/08/05 06:07:19;;;;;;;8.83;1.80;;;;;;;42.66;22.01;98217.59;5093204;28;20040;-76
2023/08/05 06:09:45;;;;;;;5.20;1.77;;;;;;;42.92;21.70;98210.94;5109705;28;20051;-76
2023/08/05 06:12:10;;;;;;;3.90;1.70;;;;;;;42.54;22.13;98207.38;5092665;28;20075;-77
2023/08/05 06:14:36;;;;;;;5.10;1.67;;;;;;;43.37;21.12;98212.72;5092986;28;20020;-77
2023/08/05 06:17:03;;;;;;;5.30;1.80;;;;;;;42.45;22.15;98212.97;5092892;28;20027;-80
2023/08/05 06:19:28;;;;;;;5.78;1.88;;;;;;;42.97;21.59;98213.50;5057208;28;20024;-74
2023/08/05 06:21:54;;;;;;;4.70;2.27;;;;;;;42.29;22.09;98210.09;5058347;28;20040;-75
2023/08/05 06:24:19;;;;;;;11.37;1.60;;;;;;;41.37;23.19;98194.66;5092175;28;20031;-77
2023/08/05 06:26:44;;;;;;;7.67;1.80;;;;;;;42.40;22.32;98199.50;5074998;28;20031;-75
2023/08/05 06:29:10;;;;;;;6.40;1.90;;;;;;;43.60;20.55;98201.19;5056722;28;20048;-75
2023/08/05 06:31:35;;;;;;;15.67;1.73;;;;;;;43.32;21.01;98200.00;5057209;28;20032;-75
2023/08/05 06:34:01;;;;;;;5.20;1.60;;;;;;;43.39;21.17;98201.41;5054938;28;20385;-75
2023/08/05 06:36:26;;;;;;;3.87;1.60;;;;;;;43.78;20.73;98197.00;5054372;28;20133;-76
2023/08/05 06:38:52;;;;;;;8.20;1.90;;;;;;;44.61;19.86;98196.41;5054113;28;20043;-75
2023/08/05 06:41:19;;;;;;;4.10;1.60;;;;;;;45.10;19.49;98189.66;5071307;28;20031;-75
2023/08/05 06:43:45;;;;;;;7.65;1.48;;;;;;;45.55;19.24;98198.47;5069903;28;20032;-75
2023/08/05 06:46:10;;;;;;;7.40;1.60;;;;;;;45.64;18.79;98196.28;5070746;28;20106;-74
2023/08/05 06:48:36;;;;;;;4.30;1.60;;;;;;;45.86;18.16;98195.59;5053827;28;20032;-74
2023/08/05 06:51:01;;;;;;;5.87;1.53;;;;;;;46.08;18.50;98198.72;5054236;28;20068;-74
2023/08/05 06:53:27;;;;;;;5.07;1.50;;;;;;;46.28;17.88;98185.69;5072397;28;20025;-75
2023/08/05 06:56:02;;;;;;;3.30;1.50;;;;;;;46.41;17.95;98186.28;5070941;28;20033;-74
2023/08/05 06:58:27;;;;;;;3.92;1.60;;;;;;;46.47;18.08;98186.78;5054362;28;20082;-75
2023/08/05 07:00:53;;;;;;;4.83;1.50;;;;;;;46.61;17.55;98191.72;5071296;28;20040;-74
2023/08/05 07:03:18;;;;;;;4.80;1.30;;;;;;;46.69;17.79;98174.91;5053059;28;20063;-74
2023/08/05 07:05:44;;;;;;;4.87;1.60;;;;;;;46.77;17.52;98173.06;5050156;28;20060;-73
2023/08/05 07:08:10;;;;;;;3.70;1.50;;;;;;;46.84;17.40;98180.63;5073929;28;20028;-73
2023/08/05 07:10:36;;;;;;;5.90;1.83;;;;;;;46.83;17.15;98173.50;5037852;28;20457;-74
2023/08/05 07:13:05;;;;;;;3.73;1.30;;;;;;;46.75;17.40;98169.88;5070749;28;20040;-73
2023/08/05 07:15:34;;;;;;;4.20;1.60;;;;;;;46.70;17.48;98165.47;5038887;28;20032;-72
2023/08/05 07:18:00;;;;;;;5.15;1.60;;;;;;;46.74;17.83;98160.78;5071973;28;20028;-74
2023/08/05 07:20:26;;;;;;;3.25;1.60;;;;;;;46.77;17.28;98164.78;5091014;28;20031;-73
2023/08/05 07:22:51;;;;;;;4.47;1.50;;;;;;;46.73;17.63;98172.19;5073818;28;20047;-73
2023/08/05 07:25:17;;;;;;;3.67;1.80;;;;;;;46.70;17.48;98176.53;5057191;28;20032;-72
2023/08/05 07:27:42;;;;;;;3.23;1.40;;;;;;;46.67;17.40;98173.69;5073850;28;20028;-73
2023/08/05 07:30:08;;;;;;;3.57;1.50;;;;;;;46.62;17.77;98161.00;5090668;28;20492;-72
2023/08/05 07:32:34;;;;;;;8.20;1.70;;;;;;;46.65;17.46;98165.78;5057190;28;20036;-73
2023/08/05 07:34:59;;;;;;;3.90;1.60;;;;;;;46.60;17.92;98168.84;5073829;28;20465;-73
2023/08/05 07:37:25;;;;;;;3.57;1.50;;;;;;;46.48;17.87;98156.06;5057290;28;20055;-73
2023/08/05 07:39:51;;;;;;;5.03;1.70;;;;;;;46.43;17.91;98167.38;5057241;28;20115;-72
2023/08/05 07:42:19;;;;;;;4.37;1.50;;;;;;;46.41;17.65;98162.22;5057403;28;20032;-73
2023/08/05 07:44:46;;;;;;;4.60;1.52;;;;;;;46.41;18.09;98162.22;5074186;28;20035;-72
2023/08/05 07:47:12;;;;;;;3.53;1.50;;;;;;;46.37;17.91;98160.59;5071337;28;20044;-72
2023/08/05 07:49:37;;;;;;;7.82;1.52;;;;;;;46.34;18.16;98164.91;5073353;28;20027;-73
2023/08/05 07:52:06;;;;;;;4.50;1.40;;;;;;;46.23;17.94;98155.66;5089940;28;20039;-72
2023/08/05 07:54:32;;;;;;;4.22;1.58;;;;;;;46.20;17.88;98146.16;5057066;28;20418;-72
2023/08/05 07:56:58;;;;;;;3.88;1.70;;;;;;;46.21;18.21;98150.50;5071057;28;20028;-73
2023/08/05 07:59:25;;;;;;;4.25;1.58;;;;;;;46.18;18.15;98153.19;5070580;28;20040;-71
2023/08/05 08:01:53;;;;;;;3.97;1.70;;;;;;;46.20;18.26;98151.66;5072973;28;20032;-73
2023/08/05 08:04:18;;;;;;;6.07;2.00;;;;;;;46.17;18.28;98149.66;5069910;28;20039;-73
2023/08/05 08:06:45;;;;;;;4.20;1.70;;;;;;;46.11;18.19;98142.81;5058924;28;20033;-72
2023/08/05 08:09:11;;;;;;;;;;;;;;;46.09;18.23;98141.59;5053907;28;20040;-73
2023/08/05 08:11:37;;;;;;;4.63;1.75;;;;;;;46.04;18.72;98139.94;5068166;28;19912;-74
2023/08/05 08:14:05;;;;;;;4.45;1.65;;;;;;;46.00;18.31;98147.34;5053908;28;20470;-74
2023/08/05 08:16:31;;;;;;;6.90;1.90;;;;;;;45.90;18.49;98143.25;5060209;28;20032;-73
2023/08/05 08:18:57;;;;;;;5.55;1.88;;;;;;;45.85;18.93;98138.84;5069553;28;20407;-76
2023/08/05 08:21:22;;;;;;;5.90;1.70;;;;;;;45.80;18.52;98141.91;5048654;28;20055;-72
2023/08/05 08:23:48;;;;;;;2.60;1.67;;;;;;;45.73;18.79;98127.97;5056061;28;20039;-80
2023/08/05 08:26:13;;;;;;;4.43;1.70;;;;;;;45.68;18.83;98131.81;5048487;28;20036;-74
2023/08/05 08:28:39;;;;;;;3.57;1.70;;;;;;;45.62;18.32;98124.22;5070834;28;20097;-74
2023/08/05 08:31:04;;;;;;;7.00;2.20;;;;;;;45.55;18.86;98121.31;5044304;28;20040;-72
2023/08/05 08:33:30;;;;;;;2.90;1.50;;;;;;;45.47;18.41;98120.41;5056362;28;20024;-72
2023/08/05 08:35:55;;;;;;;4.07;1.77;;;;;;;45.40;18.36;98118.28;5070932;28;20081;-73
2023/08/05 08:38:22;;;;;;;6.50;1.87;;;;;;;45.31;18.40;98117.69;5052473;28;20075;-73
2023/08/05 08:40:48;;;;;;;4.57;1.90;;;;;;;45.18;18.45;98108.78;5053484;28;20032;-74
2023/08/05 08:43:19;;;;;;;5.75;1.77;;;;;;;45.07;18.78;98119.59;5089774;28;20024;-72
2023/08/05 08:45:46;;;;;;;5.32;1.50;;;;;;;44.86;19.15;98113.63;5089956;28;20050;-75
2023/08/05 08:48:11;;;;;;;3.80;1.50;;;;;;;44.67;18.91;98101.41;5073094;28;20063;-79
2023/08/05 08:50:37;;;;;;;3.60;1.60;;;;;;;44.60;18.93;98104.81;5056113;28;20047;-76
2023/08/05 08:53:03;;;;;;;3.80;1.70;;;;;;;44.49;19.16;98095.50;5089703;28;20022;-72
2023/08/05 08:55:29;;;;;;;4.73;1.73;;;;;;;44.40;19.19;98098.44;5089683;28;20048;-72
2023/08/05 08:57:55;;;;;;;6.82;1.88;;;;;;;44.36;19.35;98096.75;5072707;28;20031;-72
2023/08/05 09:00:20;;;;;;;4.07;1.70;;;;;;;44.28;19.02;98081.25;5055915;28;20040;-74
2023/08/05 09:02:46;;;;;;;5.40;1.67;;;;;;;44.23;18.84;98080.38;5055324;28;20027;-76
2023/08/05 09:05:11;;;;;;;4.77;1.30;;;;;;;44.04;19.28;98083.78;5055721;28;20044;-73
2023/08/05 09:07:37;;;;;;;5.40;1.43;;;;;;;43.91;19.27;98074.06;5080861;28;20076;-73
2023/08/05 09:10:06;;;;;;;3.30;1.30;;;;;;;43.73;19.24;98068.88;5056173;28;20036;-74
2023/08/05 09:12:33;;;;;;;3.83;1.60;;;;;;;43.52;19.81;98063.66;5089552;28;20036;-72
2023/08/05 09:14:58;;;;;;;5.32;1.75;;;;;;;43.44;19.96;98063.81;5076594;28;20074;-74
2023/08/05 09:17:24;;;;;;;4.53;1.70;;;;;;;43.36;19.72;98071.03;5055697;28;20415;-71
2023/08/05 09:19:49;;;;;;;4.77;1.60;;;;;;;43.12;19.71;98069.97;5082340;28;20086;-73
2023/08/05 09:22:15;;;;;;;3.63;1.40;;;;;;;42.91;19.32;98058.38;5083766;28;20024;-73
2023/08/05 09:24:40;;;;;;;10.87;1.60;;;;;;;42.71;19.37;98060.94;5059148;28;20040;-72
2023/08/05 09:27:06;;;;;;;3.07;1.40;;;;;;;42.60;19.39;98059.84;5075693;28;20173;-73
2023/08/05 09:29:36;;;;;;;5.50;1.50;;;;;;;42.58;19.17;98051.16;5066723;28;20032;-73
2023/08/05 09:32:02;;;;;;;3.20;1.30;;;;;;;42.37;19.22;98043.03;5088098;28;20132;-73
2023/08/05 09:34:38;;;;;;;2.72;1.50;;;;;;;42.23;19.60;98040.66;5081545;28;20028;-72
2023/08/05 09:37:04;;;;;;;5.20;2.00;;;;;;;42.05;22.56;98038.13;5072277;28;20068;-73
2023/08/05 09:39:47;;;;;;;4.93;2.10;;;;;;;41.86;21.47;98027.75;5055804;28;20028;-75
2023/08/05 09:42:24;;;;;;;6.13;2.00;;;;;;;41.74;21.59;98028.53;5055169;28;20130;-73
2023/08/05 09:44:52;;;;;;;5.70;2.03;;;;;;;41.69;21.09;98030.66;5075511;28;20034;-71
2023/08/05 09:47:21;;;;;;;4.93;1.80;;;;;;;41.58;21.06;98033.84;5092793;28;20062;-72
2023/08/05 09:49:51;;;;;;;3.95;1.90;;;;;;;41.45;21.02;98032.22;5075716;28;20032;-73
2023/08/05 09:52:17;;;;;;;5.32;2.05;;;;;;;41.37;21.02;98035.84;5093357;28;20044;-73
2023/08/05 09:55:05;;;;;;;4.03;1.65;;;;;;;41.21;21.32;98017.31;5093706;28;20027;-72
2023/08/05 09:57:30;;;;;;;3.95;1.70;;;;;;;41.21;20.99;98009.09;5094691;28;20063;-72
2023/08/05 09:59:59;;;;;;;4.68;1.60;;;;;;;41.09;20.59;98002.75;5093344;28;20478;-73
2023/08/05 10:02:25;;;;;;;5.82;1.90;;;;;;;40.98;21.01;98016.06;5093032;28;20036;-71
2023/08/05 10:04:56;;;;;;;5.03;1.50;;;;;;;40.77;21.08;98000.44;5076141;28;20048;-72
2023/08/05 10:07:25;;;;;;;7.65;1.90;;;;;;;40.65;20.75;98003.13;5093386;28;20043;-72
2023/08/05 10:09:52;;;;;;;3.20;1.50;;;;;;;40.56;21.03;97994.19;5093022;28;20390;-72
2023/08/05 10:12:19;;;;;;;5.55;1.48;;;;;;;40.37;20.90;97987.19;5092554;28;20035;-72
2023/08/05 10:14:44;;;;;;;;;;;;;;;40.36;21.12;97987.53;5076922;28;20036;-72
2023/08/05 10:17:09;;;;;;;4.27;1.60;;;;;;;40.22;21.25;97987.81;5075698;28;19912;-72
2023/08/05 10:19:35;;;;;;;4.32;1.73;;;;;;;40.11;21.49;97982.72;5076040;28;20035;-74
2023/08/05 10:22:09;;;;;;;5.18;1.70;;;;;;;40.04;21.90;97985.16;5074910;28;20024;-72
2023/08/05 10:25:00;;;;;;;6.05;1.70;;;;;;;39.96;21.74;97985.97;5092555;28;20081;-72
2023/08/05 10:27:43;;;;;;;5.45;1.50;;;;;;;39.82;21.94;97980.75;5076761;28;20027;-73
2023/08/05 10:30:09;;;;;;;3.35;1.60;;;;;;;39.69;21.88;97979.84;5076077;28;20384;-73
2023/08/05 10:32:35;;;;;;;3.50;1.35;;;;;;;39.56;22.00;97970.75;5092504;28;20024;-71
2023/08/05 10:35:29;;;;;;;3.60;1.63;;;;;;;39.40;22.00;97970.44;5075584;28;20036;-73
2023/08/05 10:38:16;;;;;;;6.50;1.60;;;;;;;39.36;22.10;97960.50;5092339;28;20028;-73
2023/08/05 10:41:03;;;;;;;3.55;1.50;;;;;;;39.27;22.48;97955.09;5093776;28;20066;-73
2023/08/05 10:43:31;;;;;;;4.05;1.50;;;;;;;39.22;22.60;97952.50;5092555;28;20056;-72
2023/08/05 10:46:06;;;;;;;4.00;1.42;;;;;;;39.15;23.01;97952.22;5092097;28;20027;-73
2023/08/05 10:48:43;;;;;;;5.53;1.50;;;;;;;39.04;23.13;97944.34;5091756;28;20032;-72
2023/08/05 10:51:11;;;;;;;4.07;1.60;;;;;;;38.95;22.87;97946.31;5092093;28;20479;-71
2023/08/05 10:53:37;;;;;;;4.00;1.40;;;;;;;38.87;22.95;97947.09;5093374;28;20028;-71
2023/08/05 10:56:03;;;;;;;3.20;1.60;;;;;;;38.75;22.58;97945.03;5075247;28;20034;-71
2023/08/05 10:58:28;;;;;;;4.80;1.30;;;;;;;38.61;22.28;97941.66;5075036;28;20025;-72
2023/08/05 11:01:02;;;;;;;4.00;1.50;;;;;;;38.52;22.33;97945.19;5090853;28;20039;-72
2023/08/05 11:03:46;;;;;;;2.88;1.40;;;;;;;38.45;21.93;97930.44;5092285;28;20478;-72
2023/08/05 11:06:13;;;;;;;3.22;1.40;;;;;;;38.33;21.84;97945.50;5074719;28;20052;-71
2023/08/05 11:08:40;;;;;;;2.70;1.30;;;;;;;38.26;21.60;97933.47;5075145;28;20464;-72
2023/08/05 11:11:07;;;;;;;3.50;1.58;;;;;;;38.16;21.60;97920.94;5074364;28;20090;-72
2023/08/05 11:13:36;;;;;;;2.63;1.40;;;;;;;38.04;21.93;97904.41;5075059;28;20020;-72
2023/08/05 11:16:09;;;;;;;3.53;1.58;;;;;;;37.97;22.20;97910.31;5091440;28;20086;-72
2023/08/05 11:18:34;;;;;;;5.53;1.30;;;;;;;37.89;22.67;97920.09;5074734;28;20020;-72
2023/08/05 11:21:01;;;;;;;11.00;1.75;;;;;;;37.80;22.86;97897.47;5074739;28;20486;-72
2023/08/05 11:23:27;;;;;;;6.35;1.70;;;;;;;37.75;23.15;97897.59;5107739;28;20043;-72
2023/08/05 11:25:53;;;;;;;7.60;1.75;;;;;;;37.71;23.04;97891.19;5091551;28;20531;-71
2023/08/05 11:28:22;;;;;;;4.53;1.30;;;;;;;37.65;23.28;97895.94;5074797;28;20036;-71
2023/08/05 11:30:47;;;;;;;2.90;1.40;;;;;;;37.59;23.06;97908.91;5074576;28;20032;-72